sensor_id;sensor_type;location;lat;lon;timestamp;temperature;humidity
39099;DHT22;24844;52.380;7.018;2023-04-15T00:01:06;8.00;99.90
39099;DHT22;24844;52.380;7.018;2023-04-15T00:03:32;8.00;99.90
39099;DHT22;24844;52.380;7.018;2023-04-15T00:05:58;8.10;99.90
39099;DHT22;24844;52.380;7.018;2023-04-15T00:08:24;8.10;99.90
39099;DHT22;24844;52.380;7.018;2023-04-15T00:10:50;8.10;99.90
39099;DHT22;24844;52.380;7.018;2023-04-15T00:13:15;8.10;99.90
39099;DHT22;24844;52.380;7.018;2023-04-15T00:15:41;8.10;99.90
39099;DHT22;24844;52.380;7.018;2023-04-15T00:18:07;8.10;99.90
39099;DHT22;24844;52.380;7.018;2023-04-15T00:20:33;8.10;99.90
39099;DHT22;24844;52.380;7.018;2023-04-15T00:23:00;8.10;99.90
39099;DHT22;24844;52.380;7.018;2023-04-15T00:25:26;8.10;99.90
39099;DHT22;24844;52.380;7.018;2023-04-15T00:27:52;8.10;99.90
39099;DHT22;24844;52.380;7.018;2023-04-15T00:30:18;8.20;99.90
39099;DHT22;24844;52.380;7.018;2023-04-15T00:32:44;8.30;99.90
39099;DHT22;24844;52.380;7.018;2023-04-15T00:35:10;8.30;99.90
39099;DHT22;24844;52.380;7.018;2023-04-15T00:37:35;8.30;99.90
39099;DHT22;24844;52.380;7.018;2023-04-15T00:40:01;8.20;99.90
39099;DHT22;24844;52.380;7.018;2023-04-15T00:42:30;8.30;99.90
39099;DHT22;24844;52.380;7.018;2023-04-15T00:44:56;8.20;99.90
39099;DHT22;24844;52.380;7.018;2023-04-15T00:47:22;8.10;99.90
39099;DHT22;24844;52.380;7.018;2023-04-15T00:49:47;8.10;99.90
39099;DHT22;24844;52.380;7.018;2023-04-15T00:52:13;8.10;99.90
39099;DHT22;24844;52.380;7.018;2023-04-15T00:54:39;8.10;99.90
39099;DHT22;24844;52.380;7.018;2023-04-15T00:57:05;8.00;99.90
39099;DHT22;24844;52.380;7.018;2023-04-15T00:59:32;8.00;99.90
39099;DHT22;24844;52.380;7.018;2023-04-15T01:01:58;8.00;99.90
39099;DHT22;24844;52.380;7.018;2023-04-15T01:04:24;7.90;99.90
39099;DHT22;24844;52.380;7.018;2023-04-15T01:06:50;7.90;99.90
39099;DHT22;24844;52.380;7.018;2023-04-15T01:09:16;7.90;99.90
39099;DHT22;24844;52.380;7.018;2023-04-15T01:11:42;7.80;99.90
39099;DHT22;24844;52.380;7.018;2023-04-15T01:14:08;7.80;99.90
39099;DHT22;24844;52.380;7.018;2023-04-15T01:16:36;7.80;99.90
39099;DHT22;24844;52.380;7.018;2023-04-15T01:19:05;7.90;99.90
39099;DHT22;24844;52.380;7.018;2023-04-15T01:21:31;7.80;99.90
39099;DHT22;24844;52.380;7.018;2023-04-15T01:23:57;7.80;99.90
39099;DHT22;24844;52.380;7.018;2023-04-15T01:26:24;7.90;99.90
39099;DHT22;24844;52.380;7.018;2023-04-15T01:28:49;7.80;99.90
39099;DHT22;24844;52.380;7.018;2023-04-15T01:31:16;7.80;99.90
39099;DHT22;24844;52.380;7.018;2023-04-15T01:33:42;7.90;99.90
39099;DHT22;24844;52.380;7.018;2023-04-15T01:36:08;7.80;99.90
39099;DHT22;24844;52.380;7.018;2023-04-15T01:38:35;7.70;99.90
39099;DHT22;24844;52.380;7.018;2023-04-15T01:41:01;7.60;99.90
39099;DHT22;24844;52.380;7.018;2023-04-15T01:43:29;7.60;99.90
39099;DHT22;24844;52.380;7.018;2023-04-15T01:45:54;7.60;99.90
39099;DHT22;24844;52.380;7.018;2023-04-15T01:48:21;7.60;99.90
39099;DHT22;24844;52.380;7.018;2023-04-15T01:50:46;7.60;99.90
39099;DHT22;24844;52.380;7.018;2023-04-15T01:53:12;7.50;99.90
39099;DHT22;24844;52.380;7.018;2023-04-15T01:55:37;7.40;99.90
39099;DHT22;24844;52.380;7.018;2023-04-15T01:58:03;7.40;99.90
39099;DHT22;24844;52.380;7.018;2023-04-15T02:00:29;7.40;99.90
39099;DHT22;24844;52.380;7.018;2023-04-15T02:02:56;7.30;99.90
39099;DHT22;24844;52.380;7.018;2023-04-15T02:05:23;7.30;99.90
39099;DHT22;24844;52.380;7.018;2023-04-15T02:07:49;7.30;99.90
39099;DHT22;24844;52.380;7.018;2023-04-15T02:10:15;7.20;99.90
39099;DHT22;24844;52.380;7.018;2023-04-15T02:12:41;7.20;99.90
39099;DHT22;24844;52.380;7.018;2023-04-15T02:15:07;7.20;99.90
39099;DHT22;24844;52.380;7.018;2023-04-15T02:17:34;7.10;99.90
39099;DHT22;24844;52.380;7.018;2023-04-15T02:20:00;7.10;99.90
39099;DHT22;24844;52.380;7.018;2023-04-15T02:22:25;7.10;99.90
39099;DHT22;24844;52.380;7.018;2023-04-15T02:24:52;7.00;99.90
39099;DHT22;24844;52.380;7.018;2023-04-15T02:27:17;7.00;99.90
39099;DHT22;24844;52.380;7.018;2023-04-15T02:29:44;7.00;99.90
39099;DHT22;24844;52.380;7.018;2023-04-15T02:32:10;7.00;99.90
39099;DHT22;24844;52.380;7.018;2023-04-15T02:34:37;6.90;99.90
39099;DHT22;24844;52.380;7.018;2023-04-15T02:37:06;6.80;99.90
39099;DHT22;24844;52.380;7.018;2023-04-15T02:39:32;6.90;99.90
39099;DHT22;24844;52.380;7.018;2023-04-15T02:41:57;6.80;99.90
39099;DHT22;24844;52.380;7.018;2023-04-15T02:44:25;6.80;99.90
39099;DHT22;24844;52.380;7.018;2023-04-15T02:46:52;6.80;99.90
39099;DHT22;24844;52.380;7.018;2023-04-15T02:49:19;6.80;99.90
39099;DHT22;24844;52.380;7.018;2023-04-15T02:51:45;6.70;99.90
39099;DHT22;24844;52.380;7.018;2023-04-15T02:54:20;6.70;99.90
39099;DHT22;24844;52.380;7.018;2023-04-15T02:56:50;6.70;99.90
39099;DHT22;24844;52.380;7.018;2023-04-15T02:59:19;6.70;99.90
39099;DHT22;24844;52.380;7.018;2023-04-15T03:01:45;6.60;99.90
39099;DHT22;24844;52.380;7.018;2023-04-15T03:04:10;6.60;99.90
39099;DHT22;24844;52.380;7.018;2023-04-15T03:06:36;6.60;99.90
39099;DHT22;24844;52.380;7.018;2023-04-15T03:09:02;6.50;99.90
39099;DHT22;24844;52.380;7.018;2023-04-15T03:11:31;6.50;99.90
39099;DHT22;24844;52.380;7.018;2023-04-15T03:13:57;6.40;99.90
39099;DHT22;24844;52.380;7.018;2023-04-15T03:16:23;6.40;99.90
39099;DHT22;24844;52.380;7.018;2023-04-15T03:18:49;6.40;99.90
39099;DHT22;24844;52.380;7.018;2023-04-15T03:21:15;6.30;99.90
39099;DHT22;24844;52.380;7.018;2023-04-15T03:23:40;6.20;99.90
39099;DHT22;24844;52.380;7.018;2023-04-15T03:26:06;6.20;99.90
39099;DHT22;24844;52.380;7.018;2023-04-15T03:28:31;6.20;99.90
39099;DHT22;24844;52.380;7.018;2023-04-15T03:30:57;6.20;99.90
39099;DHT22;24844;52.380;7.018;2023-04-15T03:33:23;6.20;99.90
39099;DHT22;24844;52.380;7.018;2023-04-15T03:35:50;6.20;99.90
39099;DHT22;24844;52.380;7.018;2023-04-15T03:38:16;6.30;99.90
39099;DHT22;24844;52.380;7.018;2023-04-15T03:40:42;6.30;99.90
39099;DHT22;24844;52.380;7.018;2023-04-15T03:43:08;6.30;99.90
39099;DHT22;24844;52.380;7.018;2023-04-15T03:45:33;6.30;99.90
39099;DHT22;24844;52.380;7.018;2023-04-15T03:47:59;6.30;99.90
39099;DHT22;24844;52.380;7.018;2023-04-15T03:50:25;6.20;99.90
39099;DHT22;24844;52.380;7.018;2023-04-15T03:52:51;6.20;99.90
39099;DHT22;24844;52.380;7.018;2023-04-15T03:55:16;6.20;99.90
39099;DHT22;24844;52.380;7.018;2023-04-15T03:57:42;6.20;99.90
39099;DHT22;24844;52.380;7.018;2023-04-15T04:00:08;6.20;99.90
39099;DHT22;24844;52.380;7.018;2023-04-15T04:02:35;6.20;99.90
39099;DHT22;24844;52.380;7.018;2023-04-15T04:05:00;6.20;99.90
39099;DHT22;24844;52.380;7.018;2023-04-15T04:07:26;6.20;99.90
39099;DHT22;24844;52.380;7.018;2023-04-15T04:09:52;6.00;99.90
39099;DHT22;24844;52.380;7.018;2023-04-15T04:12:17;6.00;99.90
39099;DHT22;24844;52.380;7.018;2023-04-15T04:14:43;6.00;99.90
39099;DHT22;24844;52.380;7.018;2023-04-15T04:17:09;6.00;99.90
39099;DHT22;24844;52.380;7.018;2023-04-15T04:19:34;5.90;99.90
39099;DHT22;24844;52.380;7.018;2023-04-15T04:22:00;5.80;99.90
39099;DHT22;24844;52.380;7.018;2023-04-15T04:24:26;5.70;99.90
39099;DHT22;24844;52.380;7.018;2023-04-15T04:26:51;5.70;99.90
39099;DHT22;24844;52.380;7.018;2023-04-15T04:29:17;5.70;99.90
39099;DHT22;24844;52.380;7.018;2023-04-15T04:31:42;5.60;99.90
39099;DHT22;24844;52.380;7.018;2023-04-15T04:34:08;5.40;99.90
39099;DHT22;24844;52.380;7.018;2023-04-15T04:36:34;5.40;99.90
39099;DHT22;24844;52.380;7.018;2023-04-15T04:38:59;5.30;99.90
39099;DHT22;24844;52.380;7.018;2023-04-15T04:41:26;5.30;99.90
39099;DHT22;24844;52.380;7.018;2023-04-15T04:43:51;5.30;99.90
39099;DHT22;24844;52.380;7.018;2023-04-15T04:46:17;5.30;99.90
39099;DHT22;24844;52.380;7.018;2023-04-15T04:48:42;5.30;99.90
39099;DHT22;24844;52.380;7.018;2023-04-15T04:51:08;5.30;99.90
39099;DHT22;24844;52.380;7.018;2023-04-15T04:53:34;5.30;99.90
39099;DHT22;24844;52.380;7.018;2023-04-15T04:56:00;5.20;99.90
39099;DHT22;24844;52.380;7.018;2023-04-15T04:58:25;5.20;99.90
39099;DHT22;24844;52.380;7.018;2023-04-15T05:00:51;5.30;99.90
39099;DHT22;24844;52.380;7.018;2023-04-15T05:03:17;5.30;99.90
39099;DHT22;24844;52.380;7.018;2023-04-15T05:05:42;5.40;99.90
39099;DHT22;24844;52.380;7.018;2023-04-15T05:08:08;5.40;99.90
39099;DHT22;24844;52.380;7.018;2023-04-15T05:10:34;5.40;99.90
39099;DHT22;24844;52.380;7.018;2023-04-15T05:12:59;5.50;99.90
39099;DHT22;24844;52.380;7.018;2023-04-15T05:15:25;5.50;99.90
39099;DHT22;24844;52.380;7.018;2023-04-15T05:17:50;5.60;99.90
39099;DHT22;24844;52.380;7.018;2023-04-15T05:20:16;5.60;99.90
39099;DHT22;24844;52.380;7.018;2023-04-15T05:22:42;5.80;99.90
39099;DHT22;24844;52.380;7.018;2023-04-15T05:25:08;6.00;99.90
39099;DHT22;24844;52.380;7.018;2023-04-15T05:27:34;5.80;99.90
39099;DHT22;24844;52.380;7.018;2023-04-15T05:29:59;5.90;99.90
39099;DHT22;24844;52.380;7.018;2023-04-15T05:32:25;5.90;99.90
39099;DHT22;24844;52.380;7.018;2023-04-15T05:34:51;5.90;99.90
39099;DHT22;24844;52.380;7.018;2023-04-15T05:37:16;6.00;99.90
39099;DHT22;24844;52.380;7.018;2023-04-15T05:39:45;6.20;99.90
39099;DHT22;24844;52.380;7.018;2023-04-15T05:42:10;6.20;99.90
39099;DHT22;24844;52.380;7.018;2023-04-15T05:44:36;6.40;99.90
39099;DHT22;24844;52.380;7.018;2023-04-15T05:47:02;6.40;99.90
39099;DHT22;24844;52.380;7.018;2023-04-15T05:49:28;6.30;99.90
39099;DHT22;24844;52.380;7.018;2023-04-15T05:51:53;6.40;99.90
39099;DHT22;24844;52.380;7.018;2023-04-15T05:54:19;6.60;99.90
39099;DHT22;24844;52.380;7.018;2023-04-15T05:56:46;6.70;99.90
39099;DHT22;24844;52.380;7.018;2023-04-15T05:59:11;6.60;99.90
39099;DHT22;24844;52.380;7.018;2023-04-15T06:01:37;6.70;99.90
39099;DHT22;24844;52.380;7.018;2023-04-15T06:04:03;6.90;99.90
39099;DHT22;24844;52.380;7.018;2023-04-15T06:06:28;7.00;99.90
39099;DHT22;24844;52.380;7.018;2023-04-15T06:08:54;7.00;99.90
39099;DHT22;24844;52.380;7.018;2023-04-15T06:11:20;7.00;99.90
39099;DHT22;24844;52.380;7.018;2023-04-15T06:13:46;7.10;99.90
39099;DHT22;24844;52.380;7.018;2023-04-15T06:16:12;7.30;99.90
39099;DHT22;24844;52.380;7.018;2023-04-15T06:18:37;7.40;99.90
39099;DHT22;24844;52.380;7.018;2023-04-15T06:21:03;7.50;99.90
39099;DHT22;24844;52.380;7.018;2023-04-15T06:23:29;7.50;99.90
39099;DHT22;24844;52.380;7.018;2023-04-15T06:25:54;7.60;99.90
39099;DHT22;24844;52.380;7.018;2023-04-15T06:28:20;7.70;99.90
39099;DHT22;24844;52.380;7.018;2023-04-15T06:30:46;7.80;99.90
39099;DHT22;24844;52.380;7.018;2023-04-15T06:33:11;7.80;99.90
39099;DHT22;24844;52.380;7.018;2023-04-15T06:35:37;8.00;99.90
39099;DHT22;24844;52.380;7.018;2023-04-15T06:38:03;7.80;99.90
39099;DHT22;24844;52.380;7.018;2023-04-15T06:40:29;7.90;99.90
39099;DHT22;24844;52.380;7.018;2023-04-15T06:42:55;8.10;99.90
39099;DHT22;24844;52.380;7.018;2023-04-15T06:45:21;8.40;99.90
39099;DHT22;24844;52.380;7.018;2023-04-15T06:47:46;8.30;99.90
39099;DHT22;24844;52.380;7.018;2023-04-15T06:50:12;8.40;99.90
39099;DHT22;24844;52.380;7.018;2023-04-15T06:52:37;8.40;99.90
39099;DHT22;24844;52.380;7.018;2023-04-15T06:55:03;8.50;99.90
39099;DHT22;24844;52.380;7.018;2023-04-15T06:57:29;8.60;99.90
39099;DHT22;24844;52.380;7.018;2023-04-15T06:59:55;8.60;99.90
39099;DHT22;24844;52.380;7.018;2023-04-15T07:02:21;8.60;99.90
39099;DHT22;24844;52.380;7.018;2023-04-15T07:04:46;8.80;99.90
39099;DHT22;24844;52.380;7.018;2023-04-15T07:07:13;9.10;99.90
39099;DHT22;24844;52.380;7.018;2023-04-15T07:09:39;9.20;99.90
39099;DHT22;24844;52.380;7.018;2023-04-15T07:12:05;9.30;99.90
39099;DHT22;24844;52.380;7.018;2023-04-15T07:14:30;9.20;99.90
39099;DHT22;24844;52.380;7.018;2023-04-15T07:16:56;9.10;99.90
39099;DHT22;24844;52.380;7.018;2023-04-15T07:19:21;9.30;99.90
39099;DHT22;24844;52.380;7.018;2023-04-15T07:21:48;9.30;99.90
39099;DHT22;24844;52.380;7.018;2023-04-15T07:24:13;9.20;99.90
39099;DHT22;24844;52.380;7.018;2023-04-15T07:26:42;9.60;99.90
39099;DHT22;24844;52.380;7.018;2023-04-15T07:29:08;9.40;99.90
39099;DHT22;24844;52.380;7.018;2023-04-15T07:31:34;9.20;99.90
39099;DHT22;24844;52.380;7.018;2023-04-15T07:34:01;9.30;99.90
39099;DHT22;24844;52.380;7.018;2023-04-15T07:36:27;9.40;99.90
39099;DHT22;24844;52.380;7.018;2023-04-15T07:38:53;9.50;99.90
39099;DHT22;24844;52.380;7.018;2023-04-15T07:41:19;9.50;99.90
39099;DHT22;24844;52.380;7.018;2023-04-15T07:43:46;9.40;99.90
39099;DHT22;24844;52.380;7.018;2023-04-15T07:46:13;9.10;99.90
39099;DHT22;24844;52.380;7.018;2023-04-15T07:48:38;9.50;99.90
39099;DHT22;24844;52.380;7.018;2023-04-15T07:51:04;9.50;99.90
39099;DHT22;24844;52.380;7.018;2023-04-15T07:53:30;9.60;99.90
39099;DHT22;24844;52.380;7.018;2023-04-15T07:55:57;9.60;99.90
39099;DHT22;24844;52.380;7.018;2023-04-15T07:58:23;9.70;99.90
39099;DHT22;24844;52.380;7.018;2023-04-15T08:00:48;10.00;99.90
39099;DHT22;24844;52.380;7.018;2023-04-15T08:03:14;9.70;99.90
39099;DHT22;24844;52.380;7.018;2023-04-15T08:05:40;10.00;99.90
39099;DHT22;24844;52.380;7.018;2023-04-15T08:08:06;10.20;99.90
39099;DHT22;24844;52.380;7.018;2023-04-15T08:10:31;10.20;99.90
39099;DHT22;24844;52.380;7.018;2023-04-15T08:12:57;10.00;99.90
39099;DHT22;24844;52.380;7.018;2023-04-15T08:15:22;10.30;99.90
39099;DHT22;24844;52.380;7.018;2023-04-15T08:17:48;10.30;99.90
39099;DHT22;24844;52.380;7.018;2023-04-15T08:20:14;10.50;99.90
39099;DHT22;24844;52.380;7.018;2023-04-15T08:22:39;10.70;99.90
39099;DHT22;24844;52.380;7.018;2023-04-15T08:25:06;11.10;99.90
39099;DHT22;24844;52.380;7.018;2023-04-15T08:27:31;10.70;99.90
39099;DHT22;24844;52.380;7.018;2023-04-15T08:29:57;10.60;99.90
39099;DHT22;24844;52.380;7.018;2023-04-15T08:32:22;11.00;99.90
39099;DHT22;24844;52.380;7.018;2023-04-15T08:34:50;10.40;99.90
39099;DHT22;24844;52.380;7.018;2023-04-15T08:37:16;11.10;99.90
39099;DHT22;24844;52.380;7.018;2023-04-15T08:39:41;11.30;99.90
39099;DHT22;24844;52.380;7.018;2023-04-15T08:42:11;11.20;99.90
39099;DHT22;24844;52.380;7.018;2023-04-15T08:44:41;11.00;99.90
39099;DHT22;24844;52.380;7.018;2023-04-15T08:47:08;10.80;99.90
39099;DHT22;24844;52.380;7.018;2023-04-15T08:49:38;11.20;99.90
39099;DHT22;24844;52.380;7.018;2023-04-15T08:52:05;11.60;99.90
39099;DHT22;24844;52.380;7.018;2023-04-15T08:54:32;11.80;99.90
39099;DHT22;24844;52.380;7.018;2023-04-15T08:56:58;11.30;99.90
39099;DHT22;24844;52.380;7.018;2023-04-15T08:59:24;11.20;99.90
39099;DHT22;24844;52.380;7.018;2023-04-15T09:01:50;11.00;99.90
39099;DHT22;24844;52.380;7.018;2023-04-15T09:04:16;11.00;99.90
39099;DHT22;24844;52.380;7.018;2023-04-15T09:06:42;11.40;99.90
39099;DHT22;24844;52.380;7.018;2023-04-15T09:09:08;11.10;99.90
39099;DHT22;24844;52.380;7.018;2023-04-15T09:11:34;11.40;99.90
39099;DHT22;24844;52.380;7.018;2023-04-15T09:14:00;11.50;99.90
39099;DHT22;24844;52.380;7.018;2023-04-15T09:16:26;11.50;99.90
39099;DHT22;24844;52.380;7.018;2023-04-15T09:18:53;11.80;99.90
39099;DHT22;24844;52.380;7.018;2023-04-15T09:21:18;11.50;99.90
39099;DHT22;24844;52.380;7.018;2023-04-15T09:23:58;11.80;99.90
39099;DHT22;24844;52.380;7.018;2023-04-15T09:26:38;11.50;99.90
39099;DHT22;24844;52.380;7.018;2023-04-15T09:29:08;12.00;99.90
39099;DHT22;24844;52.380;7.018;2023-04-15T09:31:35;11.70;99.90
39099;DHT22;24844;52.380;7.018;2023-04-15T09:34:01;12.00;99.90
39099;DHT22;24844;52.380;7.018;2023-04-15T09:36:27;12.10;99.90
39099;DHT22;24844;52.380;7.018;2023-04-15T09:38:56;12.00;99.90
39099;DHT22;24844;52.380;7.018;2023-04-15T09:41:23;11.80;99.90
39099;DHT22;24844;52.380;7.018;2023-04-15T09:43:49;11.70;99.90
39099;DHT22;24844;52.380;7.018;2023-04-15T09:46:14;12.00;99.90
39099;DHT22;24844;52.380;7.018;2023-04-15T09:48:40;12.20;99.90
39099;DHT22;24844;52.380;7.018;2023-04-15T09:51:06;12.70;99.90
39099;DHT22;24844;52.380;7.018;2023-04-15T09:53:35;12.10;99.90
39099;DHT22;24844;52.380;7.018;2023-04-15T09:56:02;12.10;99.90
39099;DHT22;24844;52.380;7.018;2023-04-15T09:58:31;13.00;99.90
39099;DHT22;24844;52.380;7.018;2023-04-15T10:00:58;12.60;99.90
39099;DHT22;24844;52.380;7.018;2023-04-15T10:03:29;11.90;99.90
39099;DHT22;24844;52.380;7.018;2023-04-15T10:05:57;11.60;99.90
39099;DHT22;24844;52.380;7.018;2023-04-15T10:08:25;12.10;99.90
39099;DHT22;24844;52.380;7.018;2023-04-15T10:10:52;12.40;99.90
39099;DHT22;24844;52.380;7.018;2023-04-15T10:13:23;12.00;99.90
39099;DHT22;24844;52.380;7.018;2023-04-15T10:15:59;11.50;99.90
39099;DHT22;24844;52.380;7.018;2023-04-15T10:18:26;11.90;99.90
39099;DHT22;24844;52.380;7.018;2023-04-15T10:20:53;12.20;99.90
39099;DHT22;24844;52.380;7.018;2023-04-15T10:23:19;12.50;99.90
39099;DHT22;24844;52.380;7.018;2023-04-15T10:25:46;12.40;99.90
39099;DHT22;24844;52.380;7.018;2023-04-15T10:28:14;12.10;99.90
39099;DHT22;24844;52.380;7.018;2023-04-15T10:30:42;12.20;99.90
39099;DHT22;24844;52.380;7.018;2023-04-15T10:33:08;12.30;99.90
39099;DHT22;24844;52.380;7.018;2023-04-15T10:35:34;12.70;99.90
39099;DHT22;24844;52.380;7.018;2023-04-15T10:38:00;13.20;99.90
39099;DHT22;24844;52.380;7.018;2023-04-15T10:40:30;13.20;99.90
39099;DHT22;24844;52.380;7.018;2023-04-15T10:42:58;13.60;99.90
39099;DHT22;24844;52.380;7.018;2023-04-15T10:45:34;13.70;99.90
39099;DHT22;24844;52.380;7.018;2023-04-15T10:48:02;13.50;99.90
39099;DHT22;24844;52.380;7.018;2023-04-15T10:50:30;13.30;99.90
39099;DHT22;24844;52.380;7.018;2023-04-15T10:52:56;12.80;99.90
39099;DHT22;24844;52.380;7.018;2023-04-15T10:55:24;12.40;99.90
39099;DHT22;24844;52.380;7.018;2023-04-15T10:57:57;12.60;99.90
39099;DHT22;24844;52.380;7.018;2023-04-15T11:00:24;12.60;99.90
39099;DHT22;24844;52.380;7.018;2023-04-15T11:02:59;12.40;99.90
39099;DHT22;24844;52.380;7.018;2023-04-15T11:08:08;12.20;99.90
39099;DHT22;24844;52.380;7.018;2023-04-15T11:13:02;12.40;99.90
39099;DHT22;24844;52.380;7.018;2023-04-15T11:15:29;12.40;99.90
39099;DHT22;24844;52.380;7.018;2023-04-15T11:18:09;12.50;99.90
39099;DHT22;24844;52.380;7.018;2023-04-15T11:20:35;12.30;99.90
39099;DHT22;24844;52.380;7.018;2023-04-15T11:23:01;12.30;99.90
39099;DHT22;24844;52.380;7.018;2023-04-15T11:25:34;12.30;99.90
39099;DHT22;24844;52.380;7.018;2023-04-15T11:28:01;12.00;99.90
39099;DHT22;24844;52.380;7.018;2023-04-15T11:30:29;12.00;99.90
39099;DHT22;24844;52.380;7.018;2023-04-15T11:33:05;12.20;99.90
39099;DHT22;24844;52.380;7.018;2023-04-15T11:35:31;12.20;99.90
39099;DHT22;24844;52.380;7.018;2023-04-15T11:37:57;12.40;99.90
39099;DHT22;24844;52.380;7.018;2023-04-15T11:40:26;11.90;99.90
39099;DHT22;24844;52.380;7.018;2023-04-15T11:43:12;12.00;99.90
39099;DHT22;24844;52.380;7.018;2023-04-15T11:48:13;12.20;99.90
39099;DHT22;24844;52.380;7.018;2023-04-15T11:50:39;11.70;99.90
39099;DHT22;24844;52.380;7.018;2023-04-15T11:53:08;11.70;99.90
39099;DHT22;24844;52.380;7.018;2023-04-15T11:55:51;11.70;99.90
39099;DHT22;24844;52.380;7.018;2023-04-15T11:58:24;11.20;99.90
39099;DHT22;24844;52.380;7.018;2023-04-15T12:00:56;11.20;99.90
39099;DHT22;24844;52.380;7.018;2023-04-15T12:03:29;11.20;99.90
39099;DHT22;24844;52.380;7.018;2023-04-15T12:11:31;11.50;99.90
39099;DHT22;24844;52.380;7.018;2023-04-15T12:14:18;11.50;99.90
39099;DHT22;24844;52.380;7.018;2023-04-15T12:16:46;11.60;99.90
39099;DHT22;24844;52.380;7.018;2023-04-15T12:19:15;11.60;99.90
39099;DHT22;24844;52.380;7.018;2023-04-15T12:21:44;11.40;99.90
39099;DHT22;24844;52.380;7.018;2023-04-15T12:24:10;11.30;99.90
39099;DHT22;24844;52.380;7.018;2023-04-15T12:26:46;11.30;99.90
39099;DHT22;24844;52.380;7.018;2023-04-15T12:29:15;11.40;99.90
39099;DHT22;24844;52.380;7.018;2023-04-15T12:31:52;11.50;99.90
39099;DHT22;24844;52.380;7.018;2023-04-15T12:34:28;11.50;99.90
39099;DHT22;24844;52.380;7.018;2023-04-15T12:36:56;11.40;99.90
39099;DHT22;24844;52.380;7.018;2023-04-15T12:39:24;11.40;99.90
39099;DHT22;24844;52.380;7.018;2023-04-15T12:41:50;11.50;99.90
39099;DHT22;24844;52.380;7.018;2023-04-15T12:44:16;11.60;99.90
39099;DHT22;24844;52.380;7.018;2023-04-15T12:46:42;11.40;99.90
39099;DHT22;24844;52.380;7.018;2023-04-15T12:49:08;11.40;99.90
39099;DHT22;24844;52.380;7.018;2023-04-15T12:51:34;11.70;99.90
39099;DHT22;24844;52.380;7.018;2023-04-15T12:53:59;11.40;99.90
39099;DHT22;24844;52.380;7.018;2023-04-15T12:56:25;11.40;99.90
39099;DHT22;24844;52.380;7.018;2023-04-15T12:58:51;11.30;99.90
39099;DHT22;24844;52.380;7.018;2023-04-15T13:01:17;11.00;99.90
39099;DHT22;24844;52.380;7.018;2023-04-15T13:03:43;11.00;99.90
39099;DHT22;24844;52.380;7.018;2023-04-15T13:06:08;11.60;99.90
39099;DHT22;24844;52.380;7.018;2023-04-15T13:08:34;11.30;99.90
39099;DHT22;24844;52.380;7.018;2023-04-15T13:11:00;11.40;99.90
39099;DHT22;24844;52.380;7.018;2023-04-15T13:13:26;11.60;99.90
39099;DHT22;24844;52.380;7.018;2023-04-15T13:15:51;11.60;99.90
39099;DHT22;24844;52.380;7.018;2023-04-15T13:18:17;11.40;99.90
39099;DHT22;24844;52.380;7.018;2023-04-15T13:20:43;11.40;99.90
39099;DHT22;24844;52.380;7.018;2023-04-15T13:23:08;11.50;99.90
39099;DHT22;24844;52.380;7.018;2023-04-15T13:25:35;11.20;99.90
39099;DHT22;24844;52.380;7.018;2023-04-15T13:28:00;11.10;99.90
39099;DHT22;24844;52.380;7.018;2023-04-15T13:30:26;10.90;99.90
39099;DHT22;24844;52.380;7.018;2023-04-15T13:32:52;10.70;99.90
39099;DHT22;24844;52.380;7.018;2023-04-15T13:35:18;10.70;99.90
39099;DHT22;24844;52.380;7.018;2023-04-15T13:37:45;10.80;99.90
39099;DHT22;24844;52.380;7.018;2023-04-15T13:40:11;10.80;99.90
39099;DHT22;24844;52.380;7.018;2023-04-15T13:42:36;10.90;99.90
39099;DHT22;24844;52.380;7.018;2023-04-15T13:45:02;10.60;99.90
39099;DHT22;24844;52.380;7.018;2023-04-15T13:47:28;10.40;99.90
39099;DHT22;24844;52.380;7.018;2023-04-15T13:49:53;10.40;99.90
39099;DHT22;24844;52.380;7.018;2023-04-15T13:52:24;10.40;99.90
39099;DHT22;24844;52.380;7.018;2023-04-15T13:54:49;10.30;99.90
39099;DHT22;24844;52.380;7.018;2023-04-15T13:57:15;10.50;99.90
39099;DHT22;24844;52.380;7.018;2023-04-15T13:59:40;10.50;99.90
39099;DHT22;24844;52.380;7.018;2023-04-15T14:02:06;10.50;99.90
39099;DHT22;24844;52.380;7.018;2023-04-15T14:04:32;10.50;99.90
39099;DHT22;24844;52.380;7.018;2023-04-15T14:06:58;10.60;99.90
39099;DHT22;24844;52.380;7.018;2023-04-15T14:09:23;10.40;99.90
39099;DHT22;24844;52.380;7.018;2023-04-15T14:11:49;10.30;99.90
39099;DHT22;24844;52.380;7.018;2023-04-15T14:14:15;10.40;99.90
39099;DHT22;24844;52.380;7.018;2023-04-15T14:16:41;10.50;99.90
39099;DHT22;24844;52.380;7.018;2023-04-15T14:19:06;10.50;99.90
39099;DHT22;24844;52.380;7.018;2023-04-15T14:21:32;10.60;99.90
39099;DHT22;24844;52.380;7.018;2023-04-15T14:23:58;10.80;99.90
39099;DHT22;24844;52.380;7.018;2023-04-15T14:26:24;10.80;99.90
39099;DHT22;24844;52.380;7.018;2023-04-15T14:28:49;10.70;99.90
39099;DHT22;24844;52.380;7.018;2023-04-15T14:31:15;10.90;99.90
39099;DHT22;24844;52.380;7.018;2023-04-15T14:33:41;11.00;99.90
39099;DHT22;24844;52.380;7.018;2023-04-15T14:36:07;10.70;99.90
39099;DHT22;24844;52.380;7.018;2023-04-15T14:38:34;10.60;99.90
39099;DHT22;24844;52.380;7.018;2023-04-15T14:41:03;10.30;99.90
39099;DHT22;24844;52.380;7.018;2023-04-15T14:43:29;10.30;99.90
39099;DHT22;24844;52.380;7.018;2023-04-15T14:45:54;10.30;99.90
39099;DHT22;24844;52.380;7.018;2023-04-15T14:48:20;10.30;99.90
39099;DHT22;24844;52.380;7.018;2023-04-15T14:50:46;10.00;99.90
39099;DHT22;24844;52.380;7.018;2023-04-15T14:53:11;9.70;99.90
39099;DHT22;24844;52.380;7.018;2023-04-15T14:55:37;9.60;99.90
39099;DHT22;24844;52.380;7.018;2023-04-15T14:58:03;9.50;99.90
39099;DHT22;24844;52.380;7.018;2023-04-15T15:00:29;9.40;99.90
39099;DHT22;24844;52.380;7.018;2023-04-15T15:02:54;9.30;99.90
39099;DHT22;24844;52.380;7.018;2023-04-15T15:05:20;9.50;99.90
39099;DHT22;24844;52.380;7.018;2023-04-15T15:07:46;9.30;99.90
39099;DHT22;24844;52.380;7.018;2023-04-15T15:10:11;9.20;99.90
39099;DHT22;24844;52.380;7.018;2023-04-15T15:12:37;9.20;99.90
39099;DHT22;24844;52.380;7.018;2023-04-15T15:15:03;9.20;99.90
39099;DHT22;24844;52.380;7.018;2023-04-15T15:17:29;9.10;99.90
39099;DHT22;24844;52.380;7.018;2023-04-15T15:19:55;9.00;99.90
39099;DHT22;24844;52.380;7.018;2023-04-15T15:22:20;9.10;99.90
39099;DHT22;24844;52.380;7.018;2023-04-15T15:24:46;9.00;99.90
39099;DHT22;24844;52.380;7.018;2023-04-15T15:27:12;9.00;99.90
39099;DHT22;24844;52.380;7.018;2023-04-15T15:29:37;9.00;99.90
39099;DHT22;24844;52.380;7.018;2023-04-15T15:32:03;8.90;99.90
39099;DHT22;24844;52.380;7.018;2023-04-15T15:34:29;9.00;99.90
39099;DHT22;24844;52.380;7.018;2023-04-15T15:36:54;9.00;99.90
39099;DHT22;24844;52.380;7.018;2023-04-15T15:39:22;9.00;99.90
39099;DHT22;24844;52.380;7.018;2023-04-15T15:41:48;9.00;99.90
39099;DHT22;24844;52.380;7.018;2023-04-15T15:44:14;9.00;99.90
39099;DHT22;24844;52.380;7.018;2023-04-15T15:46:40;9.10;99.90
39099;DHT22;24844;52.380;7.018;2023-04-15T15:49:06;9.10;99.90